Terminal Aerodrome Forecast
Issued by NWS Newport/Morehead City, NC

Home | Current Version | Previous Version | Text Only | Print | Product List | Glossary Off
Versions: 1 2 3 4 5 6 7 8 9 10 11 12 13 14 15

000
FTUS42 KMHX 252331
TAFEWN
TAF
KEWN 252331Z 2600/2624 VRB03KT P6SM VCSH OVC100
     FM260200 05007KT 3SM -RAPL BR OVC006
     FM260400 03015G25KT 2SM RA BR OVC005
     FM261100 02016G26KT 6SM -DZ OVC005
     FM261500 01010G17KT 5SM BR OVC005=

USA.gov is the U.S. government's official web portal to all federal, state and local government web resources and services.